<?xml version='1.0' encoding='UTF-8'?><gpx version="1.1" creator="JPX - https://github.com/jenetics/jpx" xmlns="http://www.topografix.com/GPX/1/1"><trk><trkseg><trkpt lat="44.832304063508424" lon="8.978355660119783"><ele>210.0</ele><time>2026-04-19T14:06:14Z</time></trkpt><trkpt lat="44.83247521382885" lon="8.978395737866943"><ele>210.0</ele><time>2026-04-19T14:06:17Z</time></trkpt><trkpt lat="44.8325405283233" lon="8.978418249900596"><ele>210.0</ele><time>2026-04-19T14:06:18Z</time></trkpt><trkpt lat="44.832642479156696" lon="8.978451091631841"><ele>210.0</ele><time>2026-04-19T14:06:20Z</time></trkpt><trkpt lat="44.83275012426995" lon="8.978475016628014"><ele>210.2</ele><time>2026-04-19T14:06:22Z</time></trkpt><trkpt lat="44.832825659094844" lon="8.978489639534805"><ele>210.4</ele><time>2026-04-19T14:06:24Z</time></trkpt><trkpt lat="44.83291172715093" lon="8.978426846057545"><ele>210.60000000000002</ele><time>2026-04-19T14:06:27Z</time></trkpt><trkpt lat="44.83298664008797" lon="8.97836070675883"><ele>210.8</ele><time>2026-04-19T14:06:29Z</time></trkpt><trkpt lat="44.83307710183477" lon="8.978338357236613"><ele>211.0</ele><time>2026-04-19T14:06:31Z</time></trkpt><trkpt lat="44.833166039134824" lon="8.978255280104984"><ele>211.0</ele><time>2026-04-19T14:06:34Z</time></trkpt><trkpt lat="44.83323079902327" lon="8.978137535974662"><ele>211.0</ele><time>2026-04-19T14:06:36Z</time></trkpt><trkpt lat="44.833299651887046" lon="8.978011361458169"><ele>211.0</ele><time>2026-04-19T14:06:38Z</time></trkpt><trkpt lat="44.83339870705197" lon="8.977919864133634"><ele>211.0</ele><time>2026-04-19T14:06:40Z</time></trkpt><trkpt lat="44.83346399396047" lon="8.977881277086983"><ele>211.0</ele><time>2026-04-19T14:06:41Z</time></trkpt><trkpt lat="44.833528675167194" lon="8.977850768513298"><ele>212.16666666666666</ele><time>2026-04-19T14:06:42Z</time></trkpt><trkpt lat="44.833596343322654" lon="8.97782987532245"><ele>213.33333333333331</ele><time>2026-04-19T14:06:42.999Z</time></trkpt><trkpt lat="44.833697646741385" lon="8.977812206987615"><ele>214.5</ele><time>2026-04-19T14:06:45.999Z</time></trkpt><trkpt lat="44.83376645882218" lon="8.977795444832001"><ele>215.66666666666669</ele><time>2026-04-19T14:06:46.999Z</time></trkpt><trkpt lat="44.83389332745506" lon="8.97777866882124"><ele>216.83333333333334</ele><time>2026-04-19T14:06:48.999Z</time></trkpt><trkpt lat="44.83396763445714" lon="8.977771105846609"><ele>218.0</ele><time>2026-04-19T14:06:49.999Z</time></trkpt><trkpt lat="44.83403613170314" lon="8.977749087275134"><ele>218.0</ele><time>2026-04-19T14:06:50.999Z</time></trkpt><trkpt lat="44.8341104216594" lon="8.977721387482532"><ele>218.0</ele><time>2026-04-19T14:06:51.999Z</time></trkpt><trkpt lat="44.834179374691686" lon="8.9777238339285"><ele>218.0</ele><time>2026-04-19T14:06:52.999Z</time></trkpt><trkpt lat="44.83425390034204" lon="8.977720257309963"><ele>218.0</ele><time>2026-04-19T14:06:53.999Z</time></trkpt><trkpt lat="44.8343236592062" lon="8.97770946981665"><ele>218.0</ele><time>2026-04-19T14:06:54.999Z</time></trkpt><trkpt lat="44.834397725354194" lon="8.977699350404341"><ele>218.0</ele><time>2026-04-19T14:06:55.999Z</time></trkpt><trkpt lat="44.83447363545477" lon="8.977683608282371"><ele>218.0</ele><time>2026-04-19T14:06:56.999Z</time></trkpt><trkpt lat="44.834542125748406" lon="8.977666025538854"><ele>220.0</ele><time>2026-04-19T14:06:57.999Z</time></trkpt><trkpt lat="44.83462122010966" lon="8.977641849785366"><ele>222.0</ele><time>2026-04-19T14:06:58.999Z</time></trkpt><trkpt lat="44.83468111244106" lon="8.977611985106064"><ele>224.0</ele><time>2026-04-19T14:06:59.999Z</time></trkpt><trkpt lat="44.83475915657478" lon="8.977615400617125"><ele>226.0</ele><time>2026-04-19T14:07:00.999Z</time></trkpt><trkpt lat="44.83489018425882" lon="8.977577050107937"><ele>228.0</ele><time>2026-04-19T14:07:02.999Z</time></trkpt><trkpt lat="44.83498719755169" lon="8.97760178054816"><ele>228.0</ele><time>2026-04-19T14:07:04.999Z</time></trkpt><trkpt lat="44.83509395231705" lon="8.977525534643716"><ele>228.0</ele><time>2026-04-19T14:07:05.999Z</time></trkpt><trkpt lat="44.835151536023176" lon="8.977489136065612"><ele>228.0</ele><time>2026-04-19T14:07:06.999Z</time></trkpt><trkpt lat="44.83522673835178" lon="8.9774441001034"><ele>228.0</ele><time>2026-04-19T14:07:07.999Z</time></trkpt><trkpt lat="44.83529612126892" lon="8.977411484057642"><ele>228.0</ele><time>2026-04-19T14:07:08.999Z</time></trkpt><trkpt lat="44.83540831136755" lon="8.977321904001133"><ele>231.66666666666666</ele><time>2026-04-19T14:07:10.999Z</time></trkpt><trkpt lat="44.835477465174186" lon="8.977259688124834"><ele>235.33333333333331</ele><time>2026-04-19T14:07:11.999Z</time></trkpt><trkpt lat="44.83557834788551" lon="8.977151799380268"><ele>239.0</ele><time>2026-04-19T14:07:13.999Z</time></trkpt><trkpt lat="44.83564118142951" lon="8.977097339829237"><ele>242.66666666666666</ele><time>2026-04-19T14:07:14.999Z</time></trkpt><trkpt lat="44.8357112759539" lon="8.977049342748245"><ele>246.33333333333331</ele><time>2026-04-19T14:07:15.999Z</time></trkpt><trkpt lat="44.835785387724655" lon="8.977018232691275"><ele>250.0</ele><time>2026-04-19T14:07:16.999Z</time></trkpt><trkpt lat="44.83586724190832" lon="8.977004338620755"><ele>250.0</ele><time>2026-04-19T14:07:17.999Z</time></trkpt><trkpt lat="44.835950472690094" lon="8.976991419870432"><ele>250.0</ele><time>2026-04-19T14:07:18.999Z</time></trkpt><trkpt lat="44.83604202518528" lon="8.976970463488424"><ele>250.0</ele><time>2026-04-19T14:07:19.999Z</time></trkpt><trkpt lat="44.83613974846953" lon="8.97693576599527"><ele>250.0</ele><time>2026-04-19T14:07:20.999Z</time></trkpt><trkpt lat="44.836228758435226" lon="8.976904735835488"><ele>250.0</ele><time>2026-04-19T14:07:21.999Z</time></trkpt><trkpt lat="44.836311753139924" lon="8.976879740393334"><ele>252.16666666666666</ele><time>2026-04-19T14:07:22.999Z</time></trkpt><trkpt lat="44.83638453931441" lon="8.97686466734181"><ele>254.33333333333331</ele><time>2026-04-19T14:07:23.999Z</time></trkpt><trkpt lat="44.83646171283772" lon="8.976857105422074"><ele>256.5</ele><time>2026-04-19T14:07:24.999Z</time></trkpt><trkpt lat="44.83653213873251" lon="8.976862881355682"><ele>258.6666666666667</ele><time>2026-04-19T14:07:25.999Z</time></trkpt><trkpt lat="44.83661166868048" lon="8.976880692533081"><ele>260.83333333333337</ele><time>2026-04-19T14:07:26.999Z</time></trkpt><trkpt lat="44.83669032586893" lon="8.976902662026747"><ele>263.0</ele><time>2026-04-19T14:07:27.999Z</time></trkpt><trkpt lat="44.836779966766755" lon="8.976927611693588"><ele>264.8</ele><time>2026-04-19T14:07:28.998Z</time></trkpt><trkpt lat="44.83686793329403" lon="8.976921594649239"><ele>266.6</ele><time>2026-04-19T14:07:29.998Z</time></trkpt><trkpt lat="44.83695314344772" lon="8.976936875157808"><ele>268.4</ele><time>2026-04-19T14:07:31.998Z</time></trkpt><trkpt lat="44.83695343489165" lon="8.977050354066023"><ele>270.2</ele><time>2026-04-19T14:08:19Z</time></trkpt><trkpt lat="44.83693006687376" lon="8.977230655938879"><ele>272.0</ele><time>2026-04-19T14:08:21Z</time></trkpt><trkpt lat="44.836938008701715" lon="8.977364275322689"><ele>272.0</ele><time>2026-04-19T14:08:23Z</time></trkpt><trkpt lat="44.836955376267625" lon="8.977482411448792"><ele>272.0</ele><time>2026-04-19T14:08:25Z</time></trkpt><trkpt lat="44.836973101002755" lon="8.977626607874294"><ele>272.0</ele><time>2026-04-19T14:08:27Z</time></trkpt><trkpt lat="44.83699214360192" lon="8.97775030763077"><ele>272.0</ele><time>2026-04-19T14:08:29Z</time></trkpt><trkpt lat="44.837004238042816" lon="8.97784726042688"><ele>272.0</ele><time>2026-04-19T14:09:24.999Z</time></trkpt><trkpt lat="44.837015162728164" lon="8.97793921078419"><ele>272.0</ele><time>2026-04-19T14:09:27.999Z</time></trkpt><trkpt lat="44.83702582516398" lon="8.978027362045284"><ele>271.6666666666667</ele><time>2026-04-19T14:09:29.999Z</time></trkpt><trkpt lat="44.83703201128097" lon="8.978122858640635"><ele>271.33333333333337</ele><time>2026-04-19T14:09:31.999Z</time></trkpt><trkpt lat="44.83704453296913" lon="8.97822642659907"><ele>271.0</ele><time>2026-04-19T14:09:33.998Z</time></trkpt><trkpt lat="44.83706970723803" lon="8.978326863358188"><ele>270.6666666666667</ele><time>2026-04-19T14:09:35.998Z</time></trkpt><trkpt lat="44.83711331220036" lon="8.978463968626956"><ele>270.3333333333333</ele><time>2026-04-19T14:09:38.998Z</time></trkpt><trkpt lat="44.8371527237222" lon="8.978576761710015"><ele>270.0</ele><time>2026-04-19T14:09:40.998Z</time></trkpt><trkpt lat="44.83718647680746" lon="8.978689770346392"><ele>268.8333333333333</ele><time>2026-04-19T14:09:42.998Z</time></trkpt><trkpt lat="44.83721829070702" lon="8.978810316772389"><ele>267.6666666666667</ele><time>2026-04-19T14:09:44.998Z</time></trkpt><trkpt lat="44.837246137516324" lon="8.97890219959976"><ele>266.5</ele><time>2026-04-19T14:09:46.998Z</time></trkpt><trkpt lat="44.837291721276124" lon="8.97901033385308"><ele>265.33333333333337</ele><time>2026-04-19T14:09:49.998Z</time></trkpt><trkpt lat="44.83735518995532" lon="8.979074983399856"><ele>264.1666666666667</ele><time>2026-04-19T14:09:53.997Z</time></trkpt><trkpt lat="44.83741003118797" lon="8.97914220882208"><ele>263.0</ele><time>2026-04-19T14:09:55.997Z</time></trkpt><trkpt lat="44.83746545000378" lon="8.979223480916959"><ele>262.0</ele><time>2026-04-19T14:09:57.999Z</time></trkpt><trkpt lat="44.83751289408108" lon="8.97929661496177"><ele>261.0</ele><time>2026-04-19T14:09:59.999Z</time></trkpt><trkpt lat="44.83755171126828" lon="8.979392524784881"><ele>260.0</ele><time>2026-04-19T14:10:02Z</time></trkpt><trkpt lat="44.83757056894986" lon="8.979489892368866"><ele>259.0</ele><time>2026-04-19T14:10:03.999Z</time></trkpt><trkpt lat="44.83758276827375" lon="8.979583290875912"><ele>258.0</ele><time>2026-04-19T14:10:05.999Z</time></trkpt><trkpt lat="44.83760233255361" lon="8.979690331819008"><ele>257.0</ele><time>2026-04-19T14:10:08Z</time></trkpt><trkpt lat="44.837631788877566" lon="8.979802111029434"><ele>257.0</ele><time>2026-04-19T14:10:09.999Z</time></trkpt><trkpt lat="44.83766179859539" lon="8.9798973789537"><ele>279.0</ele><time>2026-04-19T14:10:11.999Z</time></trkpt><trkpt lat="44.83767680224119" lon="8.980007639110045"><ele>279.0</ele><time>2026-04-19T14:10:14.999Z</time></trkpt><trkpt lat="44.83763823725906" lon="8.980110231582774"><ele>273.0</ele><time>2026-04-19T14:10:18.999Z</time></trkpt></trkseg></trk></gpx>